sensor_id;sensor_type;location;lat;lon;timestamp;temperature;humidity
37222;DHT22;23119;51.842;-2.230;2023-07-29T00:00:46;18.20;99.90
37222;DHT22;23119;51.842;-2.230;2023-07-29T00:03:14;18.20;99.90
37222;DHT22;23119;51.842;-2.230;2023-07-29T00:05:42;18.10;99.90
37222;DHT22;23119;51.842;-2.230;2023-07-29T00:08:08;18.10;99.90
37222;DHT22;23119;51.842;-2.230;2023-07-29T00:10:45;18.10;99.90
37222;DHT22;23119;51.842;-2.230;2023-07-29T00:13:11;18.20;99.90
37222;DHT22;23119;51.842;-2.230;2023-07-29T00:15:37;18.10;99.90
37222;DHT22;23119;51.842;-2.230;2023-07-29T00:18:03;18.00;99.90
37222;DHT22;23119;51.842;-2.230;2023-07-29T00:20:31;18.10;99.90
37222;DHT22;23119;51.842;-2.230;2023-07-29T00:22:57;18.10;99.90
37222;DHT22;23119;51.842;-2.230;2023-07-29T00:25:23;18.00;99.90
37222;DHT22;23119;51.842;-2.230;2023-07-29T00:27:49;18.00;99.90
37222;DHT22;23119;51.842;-2.230;2023-07-29T00:30:15;17.90;99.90
37222;DHT22;23119;51.842;-2.230;2023-07-29T00:32:41;17.90;99.90
37222;DHT22;23119;51.842;-2.230;2023-07-29T00:35:09;18.00;99.90
37222;DHT22;23119;51.842;-2.230;2023-07-29T00:37:35;18.00;99.90
37222;DHT22;23119;51.842;-2.230;2023-07-29T00:40:03;17.90;99.90
37222;DHT22;23119;51.842;-2.230;2023-07-29T00:42:31;17.90;99.90
37222;DHT22;23119;51.842;-2.230;2023-07-29T00:44:57;17.90;99.90
37222;DHT22;23119;51.842;-2.230;2023-07-29T00:47:24;17.90;99.90
37222;DHT22;23119;51.842;-2.230;2023-07-29T00:49:51;17.90;99.90
37222;DHT22;23119;51.842;-2.230;2023-07-29T00:52:18;18.00;99.90
37222;DHT22;23119;51.842;-2.230;2023-07-29T00:54:44;17.90;99.90
37222;DHT22;23119;51.842;-2.230;2023-07-29T00:57:12;17.90;99.90
37222;DHT22;23119;51.842;-2.230;2023-07-29T00:59:42;17.90;99.90
37222;DHT22;23119;51.842;-2.230;2023-07-29T01:02:11;17.90;99.90
37222;DHT22;23119;51.842;-2.230;2023-07-29T01:04:36;17.90;99.90
37222;DHT22;23119;51.842;-2.230;2023-07-29T01:07:14;17.90;99.90
37222;DHT22;23119;51.842;-2.230;2023-07-29T01:12:45;17.90;99.90
37222;DHT22;23119;51.842;-2.230;2023-07-29T01:17:46;17.80;99.90
37222;DHT22;23119;51.842;-2.230;2023-07-29T01:20:20;17.80;99.90
37222;DHT22;23119;51.842;-2.230;2023-07-29T01:22:53;17.80;99.90
37222;DHT22;23119;51.842;-2.230;2023-07-29T01:25:21;17.80;99.90
37222;DHT22;23119;51.842;-2.230;2023-07-29T01:27:50;17.80;99.90
37222;DHT22;23119;51.842;-2.230;2023-07-29T01:30:20;17.80;99.90
37222;DHT22;23119;51.842;-2.230;2023-07-29T01:33:18;17.80;99.90
37222;DHT22;23119;51.842;-2.230;2023-07-29T01:36:06;17.80;99.90
37222;DHT22;23119;51.842;-2.230;2023-07-29T01:38:37;17.80;99.90
37222;DHT22;23119;51.842;-2.230;2023-07-29T01:41:07;17.80;99.90
37222;DHT22;23119;51.842;-2.230;2023-07-29T01:43:33;17.80;99.90
37222;DHT22;23119;51.842;-2.230;2023-07-29T01:46:00;17.70;99.90
37222;DHT22;23119;51.842;-2.230;2023-07-29T01:48:26;17.70;99.90
37222;DHT22;23119;51.842;-2.230;2023-07-29T01:50:54;17.70;99.90
37222;DHT22;23119;51.842;-2.230;2023-07-29T01:53:22;17.60;99.90
37222;DHT22;23119;51.842;-2.230;2023-07-29T01:55:48;17.70;99.90
37222;DHT22;23119;51.842;-2.230;2023-07-29T01:58:16;17.70;99.90
37222;DHT22;23119;51.842;-2.230;2023-07-29T02:00:42;17.70;99.90
37222;DHT22;23119;51.842;-2.230;2023-07-29T02:03:07;17.70;99.90
37222;DHT22;23119;51.842;-2.230;2023-07-29T02:05:35;17.60;99.90
37222;DHT22;23119;51.842;-2.230;2023-07-29T02:08:01;17.60;99.90
37222;DHT22;23119;51.842;-2.230;2023-07-29T02:10:32;17.60;99.90
37222;DHT22;23119;51.842;-2.230;2023-07-29T02:12:58;17.60;99.90
37222;DHT22;23119;51.842;-2.230;2023-07-29T02:15:24;17.60;99.90
37222;DHT22;23119;51.842;-2.230;2023-07-29T02:17:53;17.60;99.90
37222;DHT22;23119;51.842;-2.230;2023-07-29T02:20:19;17.60;99.90
37222;DHT22;23119;51.842;-2.230;2023-07-29T02:22:44;17.60;99.90
37222;DHT22;23119;51.842;-2.230;2023-07-29T02:25:14;17.60;99.90
37222;DHT22;23119;51.842;-2.230;2023-07-29T02:27:42;17.50;99.90
37222;DHT22;23119;51.842;-2.230;2023-07-29T02:30:08;17.50;99.90
37222;DHT22;23119;51.842;-2.230;2023-07-29T02:32:37;17.50;99.90
37222;DHT22;23119;51.842;-2.230;2023-07-29T02:35:06;17.50;99.90
37222;DHT22;23119;51.842;-2.230;2023-07-29T02:37:32;17.50;99.90
37222;DHT22;23119;51.842;-2.230;2023-07-29T02:40:00;17.50;99.90
37222;DHT22;23119;51.842;-2.230;2023-07-29T02:42:29;17.50;99.90
37222;DHT22;23119;51.842;-2.230;2023-07-29T02:44:55;17.50;99.90
37222;DHT22;23119;51.842;-2.230;2023-07-29T02:47:20;17.50;99.90
37222;DHT22;23119;51.842;-2.230;2023-07-29T02:49:46;17.50;99.90
37222;DHT22;23119;51.842;-2.230;2023-07-29T02:52:15;17.50;99.90
37222;DHT22;23119;51.842;-2.230;2023-07-29T02:54:41;17.50;99.90
37222;DHT22;23119;51.842;-2.230;2023-07-29T02:57:07;17.40;99.90
37222;DHT22;23119;51.842;-2.230;2023-07-29T02:59:32;17.50;99.90
37222;DHT22;23119;51.842;-2.230;2023-07-29T03:02:00;17.40;99.90
37222;DHT22;23119;51.842;-2.230;2023-07-29T03:04:28;17.40;99.90
37222;DHT22;23119;51.842;-2.230;2023-07-29T03:06:54;17.40;99.90
37222;DHT22;23119;51.842;-2.230;2023-07-29T03:09:20;17.40;99.90
37222;DHT22;23119;51.842;-2.230;2023-07-29T03:11:45;17.40;99.90
37222;DHT22;23119;51.842;-2.230;2023-07-29T03:14:11;17.40;99.90
37222;DHT22;23119;51.842;-2.230;2023-07-29T03:16:37;17.30;99.90
37222;DHT22;23119;51.842;-2.230;2023-07-29T03:19:02;17.40;99.90
37222;DHT22;23119;51.842;-2.230;2023-07-29T03:21:28;17.30;99.90
37222;DHT22;23119;51.842;-2.230;2023-07-29T03:23:56;17.30;99.90
37222;DHT22;23119;51.842;-2.230;2023-07-29T03:26:24;17.30;99.90
37222;DHT22;23119;51.842;-2.230;2023-07-29T03:28:50;17.30;99.90
37222;DHT22;23119;51.842;-2.230;2023-07-29T03:31:18;17.30;99.90
37222;DHT22;23119;51.842;-2.230;2023-07-29T03:33:46;17.30;99.90
37222;DHT22;23119;51.842;-2.230;2023-07-29T03:36:13;17.30;99.90
37222;DHT22;23119;51.842;-2.230;2023-07-29T03:38:39;17.20;99.90
37222;DHT22;23119;51.842;-2.230;2023-07-29T03:41:09;17.20;99.90
37222;DHT22;23119;51.842;-2.230;2023-07-29T03:43:38;17.20;99.90
37222;DHT22;23119;51.842;-2.230;2023-07-29T03:46:04;17.20;99.90
37222;DHT22;23119;51.842;-2.230;2023-07-29T03:48:30;17.20;99.90
37222;DHT22;23119;51.842;-2.230;2023-07-29T03:50:56;17.20;99.90
37222;DHT22;23119;51.842;-2.230;2023-07-29T03:53:25;17.10;99.90
37222;DHT22;23119;51.842;-2.230;2023-07-29T03:55:58;17.10;99.90
37222;DHT22;23119;51.842;-2.230;2023-07-29T03:58:24;17.20;99.90
37222;DHT22;23119;51.842;-2.230;2023-07-29T04:00:52;17.20;99.90
37222;DHT22;23119;51.842;-2.230;2023-07-29T04:03:23;17.20;99.90
37222;DHT22;23119;51.842;-2.230;2023-07-29T04:05:49;17.20;99.90
37222;DHT22;23119;51.842;-2.230;2023-07-29T04:08:14;17.20;99.90
37222;DHT22;23119;51.842;-2.230;2023-07-29T04:10:43;17.30;99.90
37222;DHT22;23119;51.842;-2.230;2023-07-29T04:13:12;17.30;99.90
37222;DHT22;23119;51.842;-2.230;2023-07-29T04:15:40;17.30;99.90
37222;DHT22;23119;51.842;-2.230;2023-07-29T04:18:07;17.20;99.90
37222;DHT22;23119;51.842;-2.230;2023-07-29T04:20:33;17.10;99.90
37222;DHT22;23119;51.842;-2.230;2023-07-29T04:22:59;17.10;99.90
37222;DHT22;23119;51.842;-2.230;2023-07-29T04:25:25;17.10;99.90
37222;DHT22;23119;51.842;-2.230;2023-07-29T04:27:50;17.10;99.90
37222;DHT22;23119;51.842;-2.230;2023-07-29T04:30:16;17.10;99.90
37222;DHT22;23119;51.842;-2.230;2023-07-29T04:32:42;17.10;99.90
37222;DHT22;23119;51.842;-2.230;2023-07-29T04:35:11;17.00;99.90
37222;DHT22;23119;51.842;-2.230;2023-07-29T04:37:36;17.10;99.90
37222;DHT22;23119;51.842;-2.230;2023-07-29T04:40:02;17.00;99.90
37222;DHT22;23119;51.842;-2.230;2023-07-29T04:42:29;17.00;99.90
37222;DHT22;23119;51.842;-2.230;2023-07-29T04:44:58;17.00;99.90
37222;DHT22;23119;51.842;-2.230;2023-07-29T04:47:23;17.00;99.90
37222;DHT22;23119;51.842;-2.230;2023-07-29T04:49:51;16.90;99.90
37222;DHT22;23119;51.842;-2.230;2023-07-29T04:52:17;16.90;99.90
37222;DHT22;23119;51.842;-2.230;2023-07-29T04:54:47;16.90;99.90
37222;DHT22;23119;51.842;-2.230;2023-07-29T04:57:16;16.90;99.90
37222;DHT22;23119;51.842;-2.230;2023-07-29T04:59:45;16.90;99.90
37222;DHT22;23119;51.842;-2.230;2023-07-29T05:02:10;16.90;99.90
37222;DHT22;23119;51.842;-2.230;2023-07-29T05:04:36;16.90;99.90
37222;DHT22;23119;51.842;-2.230;2023-07-29T05:07:07;17.00;99.90
37222;DHT22;23119;51.842;-2.230;2023-07-29T05:09:35;16.90;99.90
37222;DHT22;23119;51.842;-2.230;2023-07-29T05:12:04;17.00;99.90
37222;DHT22;23119;51.842;-2.230;2023-07-29T05:14:30;17.00;99.90
37222;DHT22;23119;51.842;-2.230;2023-07-29T05:16:58;17.00;99.90
37222;DHT22;23119;51.842;-2.230;2023-07-29T05:19:26;17.00;99.90
37222;DHT22;23119;51.842;-2.230;2023-07-29T05:21:52;17.10;99.90
37222;DHT22;23119;51.842;-2.230;2023-07-29T05:24:18;17.10;99.90
37222;DHT22;23119;51.842;-2.230;2023-07-29T05:26:45;17.20;99.90
37222;DHT22;23119;51.842;-2.230;2023-07-29T05:29:11;17.30;99.90
37222;DHT22;23119;51.842;-2.230;2023-07-29T05:31:37;17.40;99.90
37222;DHT22;23119;51.842;-2.230;2023-07-29T05:34:03;17.60;99.90
37222;DHT22;23119;51.842;-2.230;2023-07-29T05:36:28;18.10;99.90
37222;DHT22;23119;51.842;-2.230;2023-07-29T05:38:55;19.20;99.90
37222;DHT22;23119;51.842;-2.230;2023-07-29T05:41:20;20.60;99.90
37222;DHT22;23119;51.842;-2.230;2023-07-29T05:43:46;22.20;99.90
37222;DHT22;23119;51.842;-2.230;2023-07-29T05:46:14;23.70;99.90
37222;DHT22;23119;51.842;-2.230;2023-07-29T05:48:43;25.20;99.90
37222;DHT22;23119;51.842;-2.230;2023-07-29T05:51:08;26.40;99.90
37222;DHT22;23119;51.842;-2.230;2023-07-29T05:53:34;27.50;97.70
37222;DHT22;23119;51.842;-2.230;2023-07-29T05:56:02;28.20;96.30
37222;DHT22;23119;51.842;-2.230;2023-07-29T05:58:30;27.60;96.40
37222;DHT22;23119;51.842;-2.230;2023-07-29T06:00:57;26.80;97.00
37222;DHT22;23119;51.842;-2.230;2023-07-29T06:03:23;25.80;97.80
37222;DHT22;23119;51.842;-2.230;2023-07-29T06:05:49;24.90;98.60
37222;DHT22;23119;51.842;-2.230;2023-07-29T06:08:15;24.10;99.60
37222;DHT22;23119;51.842;-2.230;2023-07-29T06:10:44;23.20;99.90
37222;DHT22;23119;51.842;-2.230;2023-07-29T06:13:13;22.60;99.90
37222;DHT22;23119;51.842;-2.230;2023-07-29T06:15:38;21.90;99.90
37222;DHT22;23119;51.842;-2.230;2023-07-29T06:18:04;21.40;99.90
37222;DHT22;23119;51.842;-2.230;2023-07-29T06:20:32;20.80;99.90
37222;DHT22;23119;51.842;-2.230;2023-07-29T06:23:04;20.50;99.90
37222;DHT22;23119;51.842;-2.230;2023-07-29T06:25:29;20.20;99.90
37222;DHT22;23119;51.842;-2.230;2023-07-29T06:28:03;20.00;99.90
37222;DHT22;23119;51.842;-2.230;2023-07-29T06:30:31;21.10;99.90
37222;DHT22;23119;51.842;-2.230;2023-07-29T06:32:57;22.60;99.90
37222;DHT22;23119;51.842;-2.230;2023-07-29T06:35:23;23.50;99.90
37222;DHT22;23119;51.842;-2.230;2023-07-29T06:37:49;25.20;99.90
37222;DHT22;23119;51.842;-2.230;2023-07-29T06:40:18;27.40;98.80
37222;DHT22;23119;51.842;-2.230;2023-07-29T06:42:43;29.50;95.90
37222;DHT22;23119;51.842;-2.230;2023-07-29T06:45:12;31.20;94.50
37222;DHT22;23119;51.842;-2.230;2023-07-29T06:47:37;32.70;92.60
37222;DHT22;23119;51.842;-2.230;2023-07-29T06:50:03;34.00;91.20
37222;DHT22;23119;51.842;-2.230;2023-07-29T06:52:29;33.80;90.10
37222;DHT22;23119;51.842;-2.230;2023-07-29T06:54:55;33.70;90.00
37222;DHT22;23119;51.842;-2.230;2023-07-29T06:57:26;34.90;88.50
37222;DHT22;23119;51.842;-2.230;2023-07-29T06:59:51;35.90;86.10
37222;DHT22;23119;51.842;-2.230;2023-07-29T07:02:24;36.70;85.10
37222;DHT22;23119;51.842;-2.230;2023-07-29T07:04:50;36.50;82.90
37222;DHT22;23119;51.842;-2.230;2023-07-29T07:07:23;36.30;82.70
37222;DHT22;23119;51.842;-2.230;2023-07-29T07:09:49;37.00;80.30
37222;DHT22;23119;51.842;-2.230;2023-07-29T07:12:14;37.30;80.90
37222;DHT22;23119;51.842;-2.230;2023-07-29T07:14:40;36.00;81.80
37222;DHT22;23119;51.842;-2.230;2023-07-29T07:17:06;34.50;82.80
37222;DHT22;23119;51.842;-2.230;2023-07-29T07:19:34;33.00;84.50
37222;DHT22;23119;51.842;-2.230;2023-07-29T07:21:59;31.30;86.80
37222;DHT22;23119;51.842;-2.230;2023-07-29T07:24:25;29.80;89.20
37222;DHT22;23119;51.842;-2.230;2023-07-29T07:26:51;28.40;90.80
37222;DHT22;23119;51.842;-2.230;2023-07-29T07:29:17;27.20;91.90
37222;DHT22;23119;51.842;-2.230;2023-07-29T07:31:53;26.10;93.20
37222;DHT22;23119;51.842;-2.230;2023-07-29T07:34:20;25.20;94.40
37222;DHT22;23119;51.842;-2.230;2023-07-29T07:36:48;24.50;96.20
37222;DHT22;23119;51.842;-2.230;2023-07-29T07:39:16;23.90;97.00
37222;DHT22;23119;51.842;-2.230;2023-07-29T07:41:42;25.00;96.70
37222;DHT22;23119;51.842;-2.230;2023-07-29T07:44:08;26.40;95.50
37222;DHT22;23119;51.842;-2.230;2023-07-29T07:46:41;26.40;95.30
37222;DHT22;23119;51.842;-2.230;2023-07-29T07:49:09;26.10;95.90
37222;DHT22;23119;51.842;-2.230;2023-07-29T07:51:35;25.80;96.00
37222;DHT22;23119;51.842;-2.230;2023-07-29T07:54:00;25.40;96.60
37222;DHT22;23119;51.842;-2.230;2023-07-29T07:56:26;25.00;97.20
37222;DHT22;23119;51.842;-2.230;2023-07-29T07:58:52;24.60;97.90
37222;DHT22;23119;51.842;-2.230;2023-07-29T08:01:27;24.20;98.90
37222;DHT22;23119;51.842;-2.230;2023-07-29T08:03:53;23.60;99.90
37222;DHT22;23119;51.842;-2.230;2023-07-29T08:06:19;23.20;99.90
37222;DHT22;23119;51.842;-2.230;2023-07-29T08:08:44;22.80;99.90
37222;DHT22;23119;51.842;-2.230;2023-07-29T08:11:10;22.40;99.90
37222;DHT22;23119;51.842;-2.230;2023-07-29T08:13:36;22.10;99.90
37222;DHT22;23119;51.842;-2.230;2023-07-29T08:16:01;21.90;99.90
37222;DHT22;23119;51.842;-2.230;2023-07-29T08:18:30;21.60;99.90
37222;DHT22;23119;51.842;-2.230;2023-07-29T08:20:59;21.80;99.90
37222;DHT22;23119;51.842;-2.230;2023-07-29T08:23:29;22.90;99.90
37222;DHT22;23119;51.842;-2.230;2023-07-29T08:26:14;23.90;99.90
37222;DHT22;23119;51.842;-2.230;2023-07-29T08:28:44;25.50;99.90
37222;DHT22;23119;51.842;-2.230;2023-07-29T08:31:10;27.40;99.30
37222;DHT22;23119;51.842;-2.230;2023-07-29T08:33:38;28.40;97.80
37222;DHT22;23119;51.842;-2.230;2023-07-29T08:36:06;29.00;96.50
37222;DHT22;23119;51.842;-2.230;2023-07-29T08:38:32;29.10;96.00
37222;DHT22;23119;51.842;-2.230;2023-07-29T08:41:19;28.70;96.40
37222;DHT22;23119;51.842;-2.230;2023-07-29T08:44:28;28.00;96.50
37222;DHT22;23119;51.842;-2.230;2023-07-29T08:46:50;27.20;97.40
37222;DHT22;23119;51.842;-2.230;2023-07-29T08:49:21;26.40;98.10
37222;DHT22;23119;51.842;-2.230;2023-07-29T08:51:49;25.90;98.40
37222;DHT22;23119;51.842;-2.230;2023-07-29T08:54:15;25.50;98.80
37222;DHT22;23119;51.842;-2.230;2023-07-29T08:56:42;25.10;98.70
37222;DHT22;23119;51.842;-2.230;2023-07-29T08:59:08;24.60;99.30
37222;DHT22;23119;51.842;-2.230;2023-07-29T09:01:37;24.20;99.90
37222;DHT22;23119;51.842;-2.230;2023-07-29T09:04:03;23.80;99.90
37222;DHT22;23119;51.842;-2.230;2023-07-29T09:06:35;23.50;99.90
37222;DHT22;23119;51.842;-2.230;2023-07-29T09:09:02;23.20;99.90
37222;DHT22;23119;51.842;-2.230;2023-07-29T09:11:30;23.00;99.90
37222;DHT22;23119;51.842;-2.230;2023-07-29T09:13:56;23.40;99.90
37222;DHT22;23119;51.842;-2.230;2023-07-29T09:16:22;23.90;99.90
37222;DHT22;23119;51.842;-2.230;2023-07-29T09:18:54;24.50;99.90
37222;DHT22;23119;51.842;-2.230;2023-07-29T09:21:24;25.40;99.90
37222;DHT22;23119;51.842;-2.230;2023-07-29T09:24:12;26.00;99.90
37222;DHT22;23119;51.842;-2.230;2023-07-29T09:26:38;26.50;99.70
37222;DHT22;23119;51.842;-2.230;2023-07-29T09:29:06;26.80;99.10
37222;DHT22;23119;51.842;-2.230;2023-07-29T09:31:31;27.00;98.50
37222;DHT22;23119;51.842;-2.230;2023-07-29T09:34:04;27.00;98.30
37222;DHT22;23119;51.842;-2.230;2023-07-29T09:36:32;26.70;98.10
37222;DHT22;23119;51.842;-2.230;2023-07-29T09:38:58;26.50;98.10
37222;DHT22;23119;51.842;-2.230;2023-07-29T09:41:28;26.20;98.30
37222;DHT22;23119;51.842;-2.230;2023-07-29T09:44:01;25.90;98.40
37222;DHT22;23119;51.842;-2.230;2023-07-29T09:46:37;25.50;98.50
37222;DHT22;23119;51.842;-2.230;2023-07-29T09:49:07;25.20;98.90
37222;DHT22;23119;51.842;-2.230;2023-07-29T09:51:38;25.00;99.20
37222;DHT22;23119;51.842;-2.230;2023-07-29T09:54:04;24.90;99.40
37222;DHT22;23119;51.842;-2.230;2023-07-29T09:56:36;24.70;98.90
37222;DHT22;23119;51.842;-2.230;2023-07-29T09:59:04;24.70;99.50
37222;DHT22;23119;51.842;-2.230;2023-07-29T10:01:30;24.90;99.10
37222;DHT22;23119;51.842;-2.230;2023-07-29T10:03:56;24.90;99.00
37222;DHT22;23119;51.842;-2.230;2023-07-29T10:06:22;24.90;98.80
37222;DHT22;23119;51.842;-2.230;2023-07-29T10:08:49;24.80;98.60
37222;DHT22;23119;51.842;-2.230;2023-07-29T10:11:16;24.90;98.60
37222;DHT22;23119;51.842;-2.230;2023-07-29T10:13:46;25.00;98.40
37222;DHT22;23119;51.842;-2.230;2023-07-29T10:16:13;25.30;98.30
37222;DHT22;23119;51.842;-2.230;2023-07-29T10:18:40;25.50;97.60
37222;DHT22;23119;51.842;-2.230;2023-07-29T10:21:07;25.80;97.30
37222;DHT22;23119;51.842;-2.230;2023-07-29T10:23:39;25.80;96.80
37222;DHT22;23119;51.842;-2.230;2023-07-29T10:26:09;25.60;96.60
37222;DHT22;23119;51.842;-2.230;2023-07-29T10:28:40;25.40;95.80
37222;DHT22;23119;51.842;-2.230;2023-07-29T10:31:12;25.10;96.50
37222;DHT22;23119;51.842;-2.230;2023-07-29T10:33:38;24.90;96.60
37222;DHT22;23119;51.842;-2.230;2023-07-29T10:36:05;24.70;97.00
37222;DHT22;23119;51.842;-2.230;2023-07-29T10:38:31;24.50;97.10
37222;DHT22;23119;51.842;-2.230;2023-07-29T10:40:59;24.20;97.60
37222;DHT22;23119;51.842;-2.230;2023-07-29T10:43:34;24.00;98.10
37222;DHT22;23119;51.842;-2.230;2023-07-29T10:46:21;23.90;98.30
37222;DHT22;23119;51.842;-2.230;2023-07-29T10:54:03;24.10;97.90
37222;DHT22;23119;51.842;-2.230;2023-07-29T10:56:37;24.10;97.70
37222;DHT22;23119;51.842;-2.230;2023-07-29T11:01:51;24.10;97.30
37222;DHT22;23119;51.842;-2.230;2023-07-29T11:12:37;25.30;95.60
37222;DHT22;23119;51.842;-2.230;2023-07-29T11:17:43;25.90;95.20
37222;DHT22;23119;51.842;-2.230;2023-07-29T11:20:10;26.20;95.20
37222;DHT22;23119;51.842;-2.230;2023-07-29T11:22:38;26.40;94.90
37222;DHT22;23119;51.842;-2.230;2023-07-29T11:25:05;26.60;94.50
37222;DHT22;23119;51.842;-2.230;2023-07-29T11:27:32;26.70;94.30
37222;DHT22;23119;51.842;-2.230;2023-07-29T11:30:04;26.90;94.10
37222;DHT22;23119;51.842;-2.230;2023-07-29T11:32:44;27.10;93.70
37222;DHT22;23119;51.842;-2.230;2023-07-29T11:35:14;27.20;93.20
37222;DHT22;23119;51.842;-2.230;2023-07-29T11:37:43;27.20;93.30
37222;DHT22;23119;51.842;-2.230;2023-07-29T11:40:32;27.10;93.20
37222;DHT22;23119;51.842;-2.230;2023-07-29T11:42:58;27.20;93.10
37222;DHT22;23119;51.842;-2.230;2023-07-29T11:45:23;27.20;93.50
37222;DHT22;23119;51.842;-2.230;2023-07-29T11:47:52;27.20;93.70
37222;DHT22;23119;51.842;-2.230;2023-07-29T11:50:18;27.20;92.80
37222;DHT22;23119;51.842;-2.230;2023-07-29T11:52:47;27.40;93.00
37222;DHT22;23119;51.842;-2.230;2023-07-29T11:55:14;27.40;91.90
37222;DHT22;23119;51.842;-2.230;2023-07-29T11:57:41;27.30;92.20
37222;DHT22;23119;51.842;-2.230;2023-07-29T12:00:11;27.30;92.00
37222;DHT22;23119;51.842;-2.230;2023-07-29T12:02:40;27.30;91.20
37222;DHT22;23119;51.842;-2.230;2023-07-29T12:05:08;27.20;91.00
37222;DHT22;23119;51.842;-2.230;2023-07-29T12:07:38;27.20;91.00
37222;DHT22;23119;51.842;-2.230;2023-07-29T12:10:04;27.20;90.50
37222;DHT22;23119;51.842;-2.230;2023-07-29T12:12:32;27.10;90.30
37222;DHT22;23119;51.842;-2.230;2023-07-29T12:14:58;27.10;90.50
37222;DHT22;23119;51.842;-2.230;2023-07-29T12:17:26;27.10;90.50
37222;DHT22;23119;51.842;-2.230;2023-07-29T12:19:54;27.00;90.50
37222;DHT22;23119;51.842;-2.230;2023-07-29T12:22:22;27.00;90.80
37222;DHT22;23119;51.842;-2.230;2023-07-29T12:24:51;27.00;90.70
37222;DHT22;23119;51.842;-2.230;2023-07-29T12:27:18;27.00;90.50
37222;DHT22;23119;51.842;-2.230;2023-07-29T12:29:44;26.90;90.40
37222;DHT22;23119;51.842;-2.230;2023-07-29T12:32:14;27.00;90.40
37222;DHT22;23119;51.842;-2.230;2023-07-29T12:34:39;27.00;90.30
37222;DHT22;23119;51.842;-2.230;2023-07-29T12:37:09;27.00;90.30
37222;DHT22;23119;51.842;-2.230;2023-07-29T12:39:39;27.00;90.30
37222;DHT22;23119;51.842;-2.230;2023-07-29T12:42:08;27.00;90.40
37222;DHT22;23119;51.842;-2.230;2023-07-29T12:44:36;27.00;90.30
37222;DHT22;23119;51.842;-2.230;2023-07-29T12:47:03;27.10;90.40
37222;DHT22;23119;51.842;-2.230;2023-07-29T12:49:32;27.20;90.20
37222;DHT22;23119;51.842;-2.230;2023-07-29T12:52:06;27.20;90.30
37222;DHT22;23119;51.842;-2.230;2023-07-29T12:54:32;27.10;88.90
37222;DHT22;23119;51.842;-2.230;2023-07-29T12:56:58;27.00;89.90
37222;DHT22;23119;51.842;-2.230;2023-07-29T12:59:23;26.90;90.10
37222;DHT22;23119;51.842;-2.230;2023-07-29T13:01:49;26.70;90.10
37222;DHT22;23119;51.842;-2.230;2023-07-29T13:04:15;26.40;90.30
37222;DHT22;23119;51.842;-2.230;2023-07-29T13:06:40;26.30;90.50
37222;DHT22;23119;51.842;-2.230;2023-07-29T13:09:08;26.20;90.70
37222;DHT22;23119;51.842;-2.230;2023-07-29T13:11:36;26.10;90.80
37222;DHT22;23119;51.842;-2.230;2023-07-29T13:14:02;26.00;91.10
37222;DHT22;23119;51.842;-2.230;2023-07-29T13:16:28;25.80;91.40
37222;DHT22;23119;51.842;-2.230;2023-07-29T13:18:54;25.70;91.50
37222;DHT22;23119;51.842;-2.230;2023-07-29T13:21:23;25.60;91.70
37222;DHT22;23119;51.842;-2.230;2023-07-29T13:23:49;25.70;92.00
37222;DHT22;23119;51.842;-2.230;2023-07-29T13:26:14;25.90;92.10
37222;DHT22;23119;51.842;-2.230;2023-07-29T13:28:40;25.90;92.10
37222;DHT22;23119;51.842;-2.230;2023-07-29T13:31:11;25.90;92.20
37222;DHT22;23119;51.842;-2.230;2023-07-29T13:33:38;25.90;92.30
37222;DHT22;23119;51.842;-2.230;2023-07-29T13:36:05;25.90;92.40
37222;DHT22;23119;51.842;-2.230;2023-07-29T13:38:31;26.00;92.40
37222;DHT22;23119;51.842;-2.230;2023-07-29T13:40:57;26.10;92.40
37222;DHT22;23119;51.842;-2.230;2023-07-29T13:43:30;26.30;92.40
37222;DHT22;23119;51.842;-2.230;2023-07-29T13:45:58;26.40;92.50
37222;DHT22;23119;51.842;-2.230;2023-07-29T13:48:24;26.50;92.50
37222;DHT22;23119;51.842;-2.230;2023-07-29T13:50:59;26.50;92.60
37222;DHT22;23119;51.842;-2.230;2023-07-29T13:53:24;26.50;92.40
37222;DHT22;23119;51.842;-2.230;2023-07-29T13:55:51;26.40;92.10
37222;DHT22;23119;51.842;-2.230;2023-07-29T13:58:24;26.20;92.30
37222;DHT22;23119;51.842;-2.230;2023-07-29T14:00:49;26.10;92.60
37222;DHT22;23119;51.842;-2.230;2023-07-29T14:03:15;26.00;92.80
37222;DHT22;23119;51.842;-2.230;2023-07-29T14:05:41;26.00;93.10
37222;DHT22;23119;51.842;-2.230;2023-07-29T14:08:06;26.00;93.00
37222;DHT22;23119;51.842;-2.230;2023-07-29T14:10:32;26.00;93.10
37222;DHT22;23119;51.842;-2.230;2023-07-29T14:12:58;25.90;93.00
37222;DHT22;23119;51.842;-2.230;2023-07-29T14:15:25;25.80;92.90
37222;DHT22;23119;51.842;-2.230;2023-07-29T14:17:52;25.60;93.00
37222;DHT22;23119;51.842;-2.230;2023-07-29T14:20:20;25.60;93.30
37222;DHT22;23119;51.842;-2.230;2023-07-29T14:22:45;25.60;93.20
37222;DHT22;23119;51.842;-2.230;2023-07-29T14:25:11;25.50;93.40
37222;DHT22;23119;51.842;-2.230;2023-07-29T14:27:37;25.50;93.60
37222;DHT22;23119;51.842;-2.230;2023-07-29T14:30:04;25.50;93.70
37222;DHT22;23119;51.842;-2.230;2023-07-29T14:32:30;25.50;93.60
37222;DHT22;23119;51.842;-2.230;2023-07-29T14:34:56;25.40;93.70
37222;DHT22;23119;51.842;-2.230;2023-07-29T14:37:24;25.30;93.40
37222;DHT22;23119;51.842;-2.230;2023-07-29T14:39:52;25.10;93.70
37222;DHT22;23119;51.842;-2.230;2023-07-29T14:42:19;25.10;93.90
37222;DHT22;23119;51.842;-2.230;2023-07-29T14:44:49;25.10;94.10
37222;DHT22;23119;51.842;-2.230;2023-07-29T14:47:15;25.20;94.20
37222;DHT22;23119;51.842;-2.230;2023-07-29T14:49:44;25.20;94.20
37222;DHT22;23119;51.842;-2.230;2023-07-29T14:52:11;25.20;94.30
37222;DHT22;23119;51.842;-2.230;2023-07-29T14:54:39;25.20;94.70
37222;DHT22;23119;51.842;-2.230;2023-07-29T14:57:06;25.10;94.30
37222;DHT22;23119;51.842;-2.230;2023-07-29T14:59:34;25.10;94.30
37222;DHT22;23119;51.842;-2.230;2023-07-29T15:01:59;25.00;94.50
37222;DHT22;23119;51.842;-2.230;2023-07-29T15:04:25;24.90;94.60
37222;DHT22;23119;51.842;-2.230;2023-07-29T15:06:51;24.70;94.70
37222;DHT22;23119;51.842;-2.230;2023-07-29T15:09:17;24.50;94.70
37222;DHT22;23119;51.842;-2.230;2023-07-29T15:11:43;24.40;94.90
37222;DHT22;23119;51.842;-2.230;2023-07-29T15:14:23;24.20;95.00
37222;DHT22;23119;51.842;-2.230;2023-07-29T15:16:49;24.10;95.40
37222;DHT22;23119;51.842;-2.230;2023-07-29T15:19:14;24.10;95.40
37222;DHT22;23119;51.842;-2.230;2023-07-29T15:21:40;24.10;95.00
37222;DHT22;23119;51.842;-2.230;2023-07-29T15:24:09;24.00;95.00
37222;DHT22;23119;51.842;-2.230;2023-07-29T15:26:34;23.90;95.10
37222;DHT22;23119;51.842;-2.230;2023-07-29T15:29:03;23.90;95.30
37222;DHT22;23119;51.842;-2.230;2023-07-29T15:31:31;23.90;95.30
37222;DHT22;23119;51.842;-2.230;2023-07-29T15:33:57;24.00;94.90
37222;DHT22;23119;51.842;-2.230;2023-07-29T15:36:22;24.10;94.60
37222;DHT22;23119;51.842;-2.230;2023-07-29T15:38:48;24.20;94.20
37222;DHT22;23119;51.842;-2.230;2023-07-29T15:41:19;24.30;93.60
37222;DHT22;23119;51.842;-2.230;2023-07-29T15:43:45;24.20;92.70